Time;durP1;ratioP1;P1;durP2;ratioP2;P2;SDS_P1;SDS_P2;PMS_P1;PMS_P2;Temp;Humidity;BMP_temperature;BMP_pressure;BME280_temperature;BME280_humidity;BME280_pressure;Samples;Min_cycle;Max_cycle;Signal;HPM_P1;HPM_P2
2022/05/19 00:01:04;;;;;;;17.92;9.23;;;;;;;;;;4976550;28;20026;-79
2022/05/19 00:03:32;;;;;;;16.70;8.68;;;;;;;;;;4958677;28;20023;-79
2022/05/19 00:06:01;;;;;;;19.63;9.63;;;;;;;;;;4976592;28;20562;-79
2022/05/19 00:08:27;;;;;;;15.32;8.65;;;;;;;;;;4958833;28;20031;-79
2022/05/19 00:10:55;;;;;;;19.00;9.27;;;;;;;;;;4958694;28;20019;-79
2022/05/19 00:13:21;;;;;;;17.38;8.98;;;;;;;;;;4976530;28;20452;-78
2022/05/19 00:15:47;;;;;;;15.10;9.38;;;;;;;;;;4976180;28;20385;-79
2022/05/19 00:18:13;;;;;;;18.10;9.02;;;;;;;;;;4958795;28;20122;-79
2022/05/19 00:20:40;;;;;;;23.10;9.85;;;;;;;;;;4975898;28;20169;-79
2022/05/19 00:23:06;;;;;;;16.67;9.35;;;;;;;;;;4975946;28;20027;-79
2022/05/19 00:25:32;;;;;;;17.50;8.95;;;;;;;;;;4958490;28;20354;-79
2022/05/19 00:27:58;;;;;;;18.00;9.15;;;;;;;;;;4958630;28;20381;-78
2022/05/19 00:30:24;;;;;;;18.08;9.35;;;;;;;;;;4958334;28;20101;-79
2022/05/19 00:32:50;;;;;;;22.08;9.57;;;;;;;;;;4958696;28;20029;-78
2022/05/19 00:35:16;;;;;;;18.20;9.23;;;;;;;;;;4975809;28;20035;-78
2022/05/19 00:37:42;;;;;;;17.83;9.18;;;;;;;;;;4975791;28;20030;-79
2022/05/19 00:40:09;;;;;;;16.70;9.88;;;;;;;;;;4957915;28;20035;-79
2022/05/19 00:42:44;;;;;;;16.20;9.38;;;;;;;;;;4975516;28;20031;-78
2022/05/19 00:45:15;;;;;;;15.32;9.35;;;;;;;;;;4975751;28;20043;-79
2022/05/19 00:47:45;;;;;;;22.48;10.40;;;;;;;;;;4975786;28;20520;-79
2022/05/19 00:50:17;;;;;;;20.30;10.50;;;;;;;;;;4975955;28;20098;-79
2022/05/19 00:52:45;;;;;;;21.20;10.10;;;;;;;;;;4975309;28;20038;-79
2022/05/19 00:55:11;;;;;;;24.73;11.05;;;;;;;;;;4957626;28;20041;-78
2022/05/19 00:57:41;;;;;;;19.85;11.20;;;;;;;;;;4975264;28;20031;-78
2022/05/19 01:00:09;;;;;;;23.88;10.70;;;;;;;;;;4975348;28;20030;-79
2022/05/19 01:02:37;;;;;;;26.40;12.40;;;;;;;;;;4975350;28;20027;-79
2022/05/19 01:05:08;;;;;;;22.70;12.25;;;;;;;;;;4975295;28;20760;-79
2022/05/19 01:07:53;;;;;;;23.15;11.57;;;;;;;;;;4974776;28;20407;-79
2022/05/19 01:10:19;;;;;;;23.45;11.85;;;;;;;;;;4957922;28;20031;-78
2022/05/19 01:12:47;;;;;;;21.38;11.30;;;;;;;;;;4975206;28;20097;-79
2022/05/19 01:15:13;;;;;;;25.23;12.38;;;;;;;;;;4975324;28;20082;-78
2022/05/19 01:17:39;;;;;;;24.17;11.60;;;;;;;;;;4975150;28;20074;-79
2022/05/19 01:20:09;;;;;;;26.45;12.18;;;;;;;;;;4969660;28;20015;-78
2022/05/19 01:22:55;;;;;;;20.80;12.85;;;;;;;;;;4955287;29;20133;-78
2022/05/19 01:25:33;;;;;;;25.15;13.07;;;;;;;;;;4939408;29;20466;-78
2022/05/19 01:27:59;;;;;;;21.50;13.07;;;;;;;;;;4955662;29;20527;-78
2022/05/19 01:30:25;;;;;;;25.13;13.25;;;;;;;;;;4938283;29;20111;-78
2022/05/19 01:32:54;;;;;;;28.48;14.32;;;;;;;;;;4955305;29;20126;-78
2022/05/19 01:35:20;;;;;;;25.20;14.13;;;;;;;;;;4955071;29;20127;-78
2022/05/19 01:37:46;;;;;;;26.15;13.88;;;;;;;;;;4955159;29;20140;-78
2022/05/19 01:40:30;;;;;;;27.58;14.95;;;;;;;;;;4954816;29;20031;-78
2022/05/19 01:42:59;;;;;;;30.58;14.52;;;;;;;;;;4955149;29;20106;-78
2022/05/19 01:45:44;;;;;;;30.67;16.27;;;;;;;;;;4954417;29;20044;-78
2022/05/19 01:48:22;;;;;;;28.25;14.93;;;;;;;;;;4954512;29;20031;-78
2022/05/19 01:50:51;;;;;;;29.77;16.40;;;;;;;;;;4954534;29;20023;-78
2022/05/19 01:53:22;;;;;;;29.15;15.65;;;;;;;;;;4959363;28;20034;-78
2022/05/19 01:55:51;;;;;;;31.70;16.60;;;;;;;;;;4973643;28;20039;-78
2022/05/19 01:58:17;;;;;;;31.20;16.02;;;;;;;;;;4973963;28;20394;-78
2022/05/19 02:00:44;;;;;;;35.60;16.80;;;;;;;;;;4973963;28;20038;-79
2022/05/19 02:03:13;;;;;;;30.10;15.25;;;;;;;;;;4973911;28;20026;-78
2022/05/19 02:05:49;;;;;;;29.60;16.58;;;;;;;;;;4956439;28;20409;-79
2022/05/19 02:08:24;;;;;;;29.92;15.80;;;;;;;;;;4974170;28;20074;-78
2022/05/19 02:10:53;;;;;;;31.08;17.45;;;;;;;;;;4974002;28;20389;-78
2022/05/19 02:13:20;;;;;;;29.35;16.25;;;;;;;;;;4973552;28;20038;-78
2022/05/19 02:15:46;;;;;;;28.80;16.00;;;;;;;;;;4973988;28;20478;-78
2022/05/19 02:18:14;;;;;;;26.98;15.50;;;;;;;;;;4973552;28;20466;-78
2022/05/19 02:20:41;;;;;;;25.65;14.95;;;;;;;;;;4963115;28;20078;-78
2022/05/19 02:23:09;;;;;;;28.98;15.57;;;;;;;;;;4954399;29;20023;-78
2022/05/19 02:25:40;;;;;;;28.17;16.05;;;;;;;;;;4954032;29;20089;-78
2022/05/19 02:28:06;;;;;;;30.75;15.65;;;;;;;;;;4954520;29;20027;-78
2022/05/19 02:30:34;;;;;;;25.02;15.60;;;;;;;;;;4954107;29;20442;-78
2022/05/19 02:33:00;;;;;;;29.63;15.82;;;;;;;;;;4954050;29;20038;-78
2022/05/19 02:35:26;;;;;;;24.13;16.45;;;;;;;;;;4954677;29;20051;-79
2022/05/19 02:37:52;;;;;;;24.63;14.80;;;;;;;;;;4953820;29;20059;-78
2022/05/19 02:40:20;;;;;;;29.33;15.68;;;;;;;;;;4953986;29;20155;-78
2022/05/19 02:42:46;;;;;;;31.90;15.90;;;;;;;;;;4954091;29;20035;-78
2022/05/19 02:45:14;;;;;;;24.02;15.70;;;;;;;;;;4953882;29;20046;-78
2022/05/19 02:47:40;;;;;;;26.30;15.90;;;;;;;;;;4954141;29;20464;-78
2022/05/19 02:50:06;;;;;;;26.95;14.50;;;;;;;;;;4953860;29;20026;-78
2022/05/19 02:52:32;;;;;;;27.52;15.43;;;;;;;;;;4953874;29;20027;-78
2022/05/19 02:54:59;;;;;;;26.15;15.25;;;;;;;;;;4954865;28;20457;-78
2022/05/19 02:57:25;;;;;;;27.65;14.30;;;;;;;;;;4972897;28;20046;-78
2022/05/19 02:59:51;;;;;;;23.67;13.95;;;;;;;;;;4973104;28;20019;-78
2022/05/19 03:02:17;;;;;;;26.33;14.55;;;;;;;;;;4973283;28;20058;-78
2022/05/19 03:04:43;;;;;;;18.30;12.63;;;;;;;;;;4972915;28;20109;-78
2022/05/19 03:07:10;;;;;;;22.20;12.63;;;;;;;;;;4972802;28;20493;-78
2022/05/19 03:09:36;;;;;;;23.83;13.40;;;;;;;;;;4972952;28;20026;-78
2022/05/19 03:12:02;;;;;;;21.88;13.27;;;;;;;;;;4972904;28;20034;-78
2022/05/19 03:14:30;;;;;;;22.67;13.45;;;;;;;;;;4973513;28;20443;-78
2022/05/19 03:16:56;;;;;;;20.90;13.75;;;;;;;;;;4972982;28;20077;-78
2022/05/19 03:19:22;;;;;;;26.02;13.73;;;;;;;;;;4972712;28;20537;-78
2022/05/19 03:21:48;;;;;;;28.27;13.95;;;;;;;;;;4954357;28;20031;-78
2022/05/19 03:24:14;;;;;;;31.67;14.38;;;;;;;;;;4953658;29;20031;-78
2022/05/19 03:26:40;;;;;;;33.70;15.07;;;;;;;;;;4953453;29;20086;-77
2022/05/19 03:29:06;;;;;;;27.55;14.48;;;;;;;;;;4971399;28;20030;-77
2022/05/19 03:31:33;;;;;;;26.83;15.00;;;;;;;;;;4974820;28;20118;-77
2022/05/19 03:33:59;;;;;;;22.45;14.45;;;;;;;;;;4976924;28;20046;-78
2022/05/19 03:36:25;;;;;;;22.55;13.18;;;;;;;;;;4976912;28;20065;-77
2022/05/19 03:38:52;;;;;;;19.83;13.10;;;;;;;;;;4976814;28;20085;-77
2022/05/19 03:41:18;;;;;;;25.15;13.25;;;;;;;;;;4977047;28;20098;-77
2022/05/19 03:43:44;;;;;;;15.27;9.82;;;;;;;;;;4976442;28;20037;-77
2022/05/19 03:46:10;;;;;;;18.75;8.85;;;;;;;;;;4976757;28;20034;-77
2022/05/19 03:48:38;;;;;;;15.18;7.63;;;;;;;;;;4976790;28;20019;-78
2022/05/19 03:51:05;;;;;;;11.73;6.95;;;;;;;;;;4976497;28;20018;-78
2022/05/19 03:53:31;;;;;;;15.75;7.20;;;;;;;;;;4955861;29;20035;-78
2022/05/19 03:55:57;;;;;;;10.73;5.80;;;;;;;;;;4957076;29;20038;-77
2022/05/19 03:58:23;;;;;;;9.40;5.88;;;;;;;;;;4957037;29;20031;-78
2022/05/19 04:00:49;;;;;;;9.93;5.15;;;;;;;;;;4957227;29;20035;-78
2022/05/19 04:03:15;;;;;;;10.30;4.75;;;;;;;;;;4957143;29;20035;-78
2022/05/19 04:05:41;;;;;;;4.78;2.70;;;;;;;;;;4957052;29;20082;-78
2022/05/19 04:08:07;;;;;;;4.85;3.08;;;;;;;;;;4957153;29;20068;-78
2022/05/19 04:10:33;;;;;;;3.00;2.15;;;;;;;;;;4957092;29;20027;-78
2022/05/19 04:13:00;;;;;;;4.85;2.17;;;;;;;;;;4957230;29;20027;-78
2022/05/19 04:15:26;;;;;;;5.13;2.33;;;;;;;;;;4956968;29;20053;-77
2022/05/19 04:17:52;;;;;;;4.28;1.52;;;;;;;;;;4957185;29;20031;-78
2022/05/19 04:20:18;;;;;;;5.30;1.50;;;;;;;;;;4963626;28;20030;-78
2022/05/19 04:22:44;;;;;;;3.65;1.42;;;;;;;;;;4976281;28;20038;-78
2022/05/19 04:25:12;;;;;;;3.28;1.27;;;;;;;;;;4976116;28;20030;-77
2022/05/19 04:27:38;;;;;;;5.10;1.67;;;;;;;;;;4976231;28;20108;-77
2022/05/19 04:30:05;;;;;;;4.30;1.48;;;;;;;;;;4976147;28;20034;-78
2022/05/19 04:32:31;;;;;;;7.05;1.45;;;;;;;;;;4976247;28;20020;-78
2022/05/19 04:34:57;;;;;;;2.45;1.05;;;;;;;;;;4976566;28;20081;-77
2022/05/19 04:37:23;;;;;;;4.03;1.58;;;;;;;;;;4958503;28;20038;-77
2022/05/19 04:39:49;;;;;;;3.42;1.50;;;;;;;;;;4976112;28;20055;-77
2022/05/19 04:42:15;;;;;;;2.53;1.27;;;;;;;;;;4975323;28;20031;-77
2022/05/19 04:44:41;;;;;;;7.95;2.97;;;;;;;;;;4975681;28;20419;-77
2022/05/19 04:47:07;;;;;;;4.13;1.80;;;;;;;;;;4958473;28;20362;-78
2022/05/19 04:49:34;;;;;;;3.28;1.58;;;;;;;;;;4975955;28;20030;-77
2022/05/19 04:52:00;;;;;;;3.35;1.58;;;;;;;;;;4975807;28;20331;-78
2022/05/19 04:54:26;;;;;;;7.78;2.22;;;;;;;;;;4971789;28;20046;-78
2022/05/19 04:56:52;;;;;;;6.20;1.95;;;;;;;;;;4975666;28;20417;-78
2022/05/19 04:59:18;;;;;;;6.18;2.00;;;;;;;;;;4975807;28;20097;-78
2022/05/19 05:01:45;;;;;;;3.40;2.17;;;;;;;;;;4976025;28;20027;-78
2022/05/19 05:04:12;;;;;;;4.07;2.10;;;;;;;;;;4975425;28;20031;-78
2022/05/19 05:06:38;;;;;;;3.95;2.22;;;;;;;;;;4975796;28;20111;-77
2022/05/19 05:09:05;;;;;;;3.50;1.70;;;;;;;;;;4975277;28;20023;-78
2022/05/19 05:11:31;;;;;;;5.28;1.85;;;;;;;;;;4975655;28;20018;-77
2022/05/19 05:13:57;;;;;;;3.45;1.55;;;;;;;;;;4975702;28;20031;-77
2022/05/19 05:16:23;;;;;;;4.45;1.55;;;;;;;;;;4975353;28;20389;-77
2022/05/19 05:18:49;;;;;;;5.60;1.67;;;;;;;;;;4975626;28;20106;-77
2022/05/19 05:21:15;;;;;;;3.35;2.00;;;;;;;;;;4974953;28;20033;-77
2022/05/19 05:23:41;;;;;;;3.85;1.90;;;;;;;;;;4974623;28;20022;-78
2022/05/19 05:26:08;;;;;;;3.88;2.13;;;;;;;;;;4974654;28;20823;-77
2022/05/19 05:28:34;;;;;;;4.20;2.10;;;;;;;;;;4975128;28;20023;-78
2022/05/19 05:31:01;;;;;;;4.32;1.95;;;;;;;;;;4974890;28;20540;-78
2022/05/19 05:33:27;;;;;;;5.40;2.28;;;;;;;;;;4975063;28;20019;-78
2022/05/19 05:35:53;;;;;;;4.15;2.08;;;;;;;;;;4974856;28;20034;-78
2022/05/19 05:38:19;;;;;;;6.63;2.60;;;;;;;;;;4975100;28;20101;-77
2022/05/19 05:40:46;;;;;;;5.03;2.70;;;;;;;;;;4975404;28;20015;-77
2022/05/19 05:43:19;;;;;;;6.32;2.40;;;;;;;;;;4975474;28;20113;-77
2022/05/19 05:45:45;;;;;;;7.15;2.75;;;;;;;;;;4973221;28;20050;-77
2022/05/19 05:48:12;;;;;;;5.05;3.17;;;;;;;;;;4975259;28;20027;-77
2022/05/19 05:50:38;;;;;;;7.28;2.58;;;;;;;;;;4975751;28;20030;-77
2022/05/19 05:53:05;;;;;;;12.88;3.13;;;;;;;;;;4975896;28;20039;-77
2022/05/19 05:55:31;;;;;;;8.20;2.85;;;;;;;;;;4975796;28;20081;-77
2022/05/19 05:57:57;;;;;;;5.32;3.17;;;;;;;;;;4976389;28;20031;-77
2022/05/19 06:00:23;;;;;;;4.55;2.38;;;;;;;;;;4976472;28;20038;-77
2022/05/19 06:02:50;;;;;;;6.18;2.35;;;;;;;;;;4976206;28;20033;-77
2022/05/19 06:05:16;;;;;;;6.88;2.97;;;;;;;;;;4975976;28;20019;-77
2022/05/19 06:07:43;;;;;;;4.50;2.80;;;;;;;;;;4975013;28;20030;-77
2022/05/19 06:10:10;;;;;;;8.43;3.35;;;;;;;;;;4975025;28;20370;-77
2022/05/19 06:12:36;;;;;;;7.88;3.20;;;;;;;;;;4975484;28;20493;-77
2022/05/19 06:15:02;;;;;;;5.63;3.60;;;;;;;;;;4975969;28;20375;-77
2022/05/19 06:17:28;;;;;;;8.88;3.55;;;;;;;;;;4975210;28;20096;-78
2022/05/19 06:19:54;;;;;;;8.05;3.10;;;;;;;;;;4975291;28;20033;-77
2022/05/19 06:22:24;;;;;;;4.68;2.90;;;;;;;;;;4957345;28;20026;-77
2022/05/19 06:24:50;;;;;;;3.95;2.35;;;;;;;;;;4974604;28;20401;-77
2022/05/19 06:27:16;;;;;;;3.88;2.38;;;;;;;;;;4974506;28;20074;-77
2022/05/19 06:29:42;;;;;;;5.03;2.00;;;;;;;;;;4974268;28;20023;-77
2022/05/19 06:32:09;;;;;;;2.63;1.88;;;;;;;;;;4974424;28;20022;-77
2022/05/19 06:34:35;;;;;;;2.92;1.98;;;;;;;;;;4955953;28;20027;-78
2022/05/19 06:37:02;;;;;;;5.55;2.70;;;;;;;;;;4974567;28;20086;-78
2022/05/19 06:39:28;;;;;;;4.60;2.50;;;;;;;;;;4975229;28;20023;-78
2022/05/19 06:42:01;;;;;;;4.55;2.80;;;;;;;;;;4974952;28;20863;-78
2022/05/19 06:44:29;;;;;;;;;;;;;;;;;;4957235;28;20477;-78
2022/05/19 06:46:55;;;;;;;5.75;2.90;;;;;;;;;;4974351;28;19906;-79
2022/05/19 06:49:21;;;;;;;4.72;2.78;;;;;;;;;;4973906;28;20597;-78
2022/05/19 06:51:47;;;;;;;5.00;2.30;;;;;;;;;;4974079;28;20027;-79
2022/05/19 06:54:13;;;;;;;5.90;2.63;;;;;;;;;;4973840;28;20023;-79
2022/05/19 06:56:39;;;;;;;5.30;2.70;;;;;;;;;;4973776;28;20097;-79
2022/05/19 06:59:05;;;;;;;4.90;2.47;;;;;;;;;;4973650;28;20023;-79
2022/05/19 07:01:32;;;;;;;5.25;2.72;;;;;;;;;;4973699;28;20027;-79
2022/05/19 07:03:58;;;;;;;11.23;2.55;;;;;;;;;;4973677;28;20031;-80
2022/05/19 07:06:25;;;;;;;6.28;2.70;;;;;;;;;;4973148;28;20054;-80
2022/05/19 07:08:51;;;;;;;7.13;2.97;;;;;;;;;;4973304;28;20102;-79
2022/05/19 07:11:26;;;;;;;7.47;2.83;;;;;;;;;;4973680;28;20488;-80
2022/05/19 07:13:53;;;;;;;4.40;2.80;;;;;;;;;;4973598;28;20022;-79
2022/05/19 07:16:19;;;;;;;8.77;2.83;;;;;;;;;;4955816;28;20063;-80
2022/05/19 07:18:45;;;;;;;4.22;3.33;;;;;;;;;;4973765;28;20030;-80
2022/05/19 07:21:12;;;;;;;5.40;3.30;;;;;;;;;;4973431;28;20030;-80
2022/05/19 07:23:39;;;;;;;4.25;2.80;;;;;;;;;;4972818;28;20081;-80
2022/05/19 07:26:06;;;;;;;4.45;3.33;;;;;;;;;;4962603;28;20055;-80
2022/05/19 07:28:32;;;;;;;9.35;3.10;;;;;;;;;;4973308;28;20026;-80
2022/05/19 07:30:58;;;;;;;4.35;3.13;;;;;;;;;;4973285;28;20027;-80
2022/05/19 07:33:28;;;;;;;4.88;2.70;;;;;;;;;;4972841;28;20105;-79
2022/05/19 07:35:54;;;;;;;4.85;2.95;;;;;;;;;;4972854;28;20399;-80
2022/05/19 07:38:20;;;;;;;5.75;3.10;;;;;;;;;;4972988;28;20062;-80
2022/05/19 07:40:49;;;;;;;4.07;2.78;;;;;;;;;;4973156;28;20454;-80
2022/05/19 07:46:00;;;;;;;4.45;2.90;;;;;;;;;;4973029;28;20114;-79
2022/05/19 07:48:26;;;;;;;6.47;2.53;;;;;;;;;;4973530;28;20027;-79
2022/05/19 07:50:52;;;;;;;6.00;2.78;;;;;;;;;;4973378;28;20027;-79
2022/05/19 07:53:19;;;;;;;3.45;2.35;;;;;;;;;;4968242;28;20106;-80
2022/05/19 07:55:45;;;;;;;3.78;2.60;;;;;;;;;;4954591;29;20035;-79
2022/05/19 07:58:11;;;;;;;7.40;2.35;;;;;;;;;;4954689;29;20461;-79
2022/05/19 08:00:37;;;;;;;4.28;2.40;;;;;;;;;;4954187;29;20323;-80
2022/05/19 08:03:03;;;;;;;3.92;1.98;;;;;;;;;;4953975;29;20462;-81
2022/05/19 08:05:30;;;;;;;2.58;1.77;;;;;;;;;;4954274;29;20031;-86
2022/05/19 08:07:56;;;;;;;3.45;1.83;;;;;;;;;;4954270;29;20027;-79
2022/05/19 08:10:25;;;;;;;3.38;2.30;;;;;;;;;;4953840;29;20028;-79
2022/05/19 08:15:40;;;;;;;2.22;1.83;;;;;;;;;;4953809;29;20505;-78
2022/05/19 08:18:06;;;;;;;3.55;1.70;;;;;;;;;;4954414;28;20024;-79
2022/05/19 08:20:33;;;;;;;3.95;1.83;;;;;;;;;;4970419;28;20042;-78
2022/05/19 08:23:00;;;;;;;2.97;1.67;;;;;;;;;;4976401;28;20484;-77
2022/05/19 08:25:27;;;;;;;2.28;1.52;;;;;;;;;;4976179;28;20046;-78
2022/05/19 08:27:54;;;;;;;3.40;1.55;;;;;;;;;;4975699;28;20069;-78
2022/05/19 08:30:20;;;;;;;7.47;2.17;;;;;;;;;;4975536;28;20439;-78
2022/05/19 08:32:46;;;;;;;3.60;1.80;;;;;;;;;;4975328;28;20022;-78
2022/05/19 08:35:12;;;;;;;5.55;1.70;;;;;;;;;;4975502;28;20067;-78
2022/05/19 08:37:39;;;;;;;4.15;1.80;;;;;;;;;;4975147;28;20357;-78
2022/05/19 08:40:05;;;;;;;3.85;1.80;;;;;;;;;;4975242;28;20052;-78
2022/05/19 08:42:34;;;;;;;3.22;2.03;;;;;;;;;;4974533;28;20027;-78
2022/05/19 08:45:02;;;;;;;3.72;2.05;;;;;;;;;;4957531;28;20406;-78
2022/05/19 08:47:31;;;;;;;5.93;2.00;;;;;;;;;;4974948;28;20485;-78
2022/05/19 08:49:58;;;;;;;4.68;2.33;;;;;;;;;;4974816;28;20450;-78
2022/05/19 08:52:25;;;;;;;9.13;2.08;;;;;;;;;;4974836;28;20027;-78
2022/05/19 08:54:53;;;;;;;3.10;1.85;;;;;;;;;;4974527;28;20039;-78
2022/05/19 08:57:27;;;;;;;3.25;1.90;;;;;;;;;;4974855;28;20041;-78
2022/05/19 09:00:00;;;;;;;3.42;2.13;;;;;;;;;;4974787;28;20030;-78
2022/05/19 09:02:44;;;;;;;2.22;1.80;;;;;;;;;;4974888;28;20031;-78
2022/05/19 09:05:13;;;;;;;5.65;2.03;;;;;;;;;;4974592;28;20486;-78
2022/05/19 09:07:57;;;;;;;2.72;1.92;;;;;;;;;;4974534;28;20050;-78
2022/05/19 09:10:23;;;;;;;7.05;2.15;;;;;;;;;;4974521;28;20019;-78
2022/05/19 09:12:56;;;;;;;4.55;2.30;;;;;;;;;;4974449;28;20035;-78
2022/05/19 09:15:22;;;;;;;5.75;2.15;;;;;;;;;;4974195;28;20019;-78
2022/05/19 09:17:48;;;;;;;3.60;2.40;;;;;;;;;;4974500;28;20104;-78
2022/05/19 09:20:16;;;;;;;4.18;2.13;;;;;;;;;;4967733;28;20019;-78
2022/05/19 09:22:42;;;;;;;3.60;2.50;;;;;;;;;;4972909;28;20082;-78
2022/05/19 09:25:10;;;;;;;3.38;2.17;;;;;;;;;;4956590;28;20486;-78
2022/05/19 09:27:41;;;;;;;3.55;2.22;;;;;;;;;;4974144;28;20025;-78
2022/05/19 09:30:14;;;;;;;7.75;2.38;;;;;;;;;;4974041;28;20596;-78
2022/05/19 09:32:45;;;;;;;4.05;2.20;;;;;;;;;;4974311;28;20047;-78
2022/05/19 09:35:27;;;;;;;5.40;2.22;;;;;;;;;;4974328;28;20476;-78
2022/05/19 09:38:13;;;;;;;3.97;2.58;;;;;;;;;;4974317;28;20355;-78
2022/05/19 09:40:40;;;;;;;5.15;2.50;;;;;;;;;;4974016;28;20425;-78
2022/05/19 09:43:32;;;;;;;3.80;2.80;;;;;;;;;;4974037;28;20110;-78
2022/05/19 09:46:09;;;;;;;3.47;2.50;;;;;;;;;;4895290;29;20060;-78
2022/05/19 09:48:41;;;;;;;5.18;3.17;;;;;;;;;;4879916;29;20072;-78
2022/05/19 09:51:11;;;;;;;5.68;3.22;;;;;;;;;;4895517;29;20192;-78
2022/05/19 09:53:39;;;;;;;4.40;2.55;;;;;;;;;;4895379;29;20031;-78
2022/05/19 09:56:08;;;;;;;7.13;2.38;;;;;;;;;;4895305;29;20035;-78
2022/05/19 09:58:37;;;;;;;7.53;2.78;;;;;;;;;;4895363;29;20033;-78
2022/05/19 10:01:05;;;;;;;3.92;2.30;;;;;;;;;;4895414;29;20035;-78
2022/05/19 10:03:34;;;;;;;4.45;2.40;;;;;;;;;;4895322;29;20522;-78
2022/05/19 10:06:04;;;;;;;5.10;2.75;;;;;;;;;;4894951;29;20035;-78
2022/05/19 10:08:35;;;;;;;5.45;2.60;;;;;;;;;;4894894;29;20060;-76
2022/05/19 10:11:07;;;;;;;3.65;2.30;;;;;;;;;;4895201;29;20048;-81
2022/05/19 10:13:53;;;;;;;5.18;2.75;;;;;;;;;;4895400;29;20029;-76
2022/05/19 10:16:37;;;;;;;5.10;2.25;;;;;;;;;;4898106;29;20049;-79
2022/05/19 10:19:06;;;;;;;3.72;2.40;;;;;;;;;;4900859;29;20028;-77
2022/05/19 10:21:41;;;;;;;3.90;2.78;;;;;;;;;;4897781;29;20043;-79
2022/05/19 10:24:26;;;;;;;4.65;3.05;;;;;;;;;;4973328;28;20039;-79
2022/05/19 10:31:02;;;;;;;3.70;2.90;;;;;;;;;;4973297;28;20022;-79
2022/05/19 10:32:57;;;;;;;5.63;3.55;;;;;;;;;;4973897;28;20564;-77
2022/05/19 10:35:38;;;;;;;7.15;3.53;;;;;;;;;;4973828;28;20078;-79
2022/05/19 10:38:24;;;;;;;9.60;3.88;;;;;;;;;;4973056;28;20034;-78
2022/05/19 10:41:09;;;;;;;6.20;3.75;;;;;;;;;;4970872;28;20038;-79
2022/05/19 10:43:54;;;;;;;6.57;3.40;;;;;;;;;;4971761;28;20023;-79
2022/05/19 10:46:22;;;;;;;6.13;3.10;;;;;;;;;;4972520;28;20061;-79
2022/05/19 10:49:09;;;;;;;6.53;3.00;;;;;;;;;;4970324;28;20030;-79
2022/05/19 10:51:42;;;;;;;7.00;3.25;;;;;;;;;;4972198;28;20470;-78
2022/05/19 10:54:19;;;;;;;5.20;2.78;;;;;;;;;;4971330;28;20074;-79
2022/05/19 10:56:52;;;;;;;6.50;2.80;;;;;;;;;;4971673;28;20031;-79
2022/05/19 10:59:37;;;;;;;6.63;2.92;;;;;;;;;;4972120;28;20023;-79
2022/05/19 11:02:06;;;;;;;6.35;3.20;;;;;;;;;;4972071;28;20489;-78
2022/05/19 11:04:32;;;;;;;6.75;3.30;;;;;;;;;;4971830;28;20145;-78
2022/05/19 11:07:06;;;;;;;5.68;2.83;;;;;;;;;;4954677;28;20019;-78
2022/05/19 11:09:35;;;;;;;6.97;2.47;;;;;;;;;;4971028;28;20041;-80
2022/05/19 11:12:07;;;;;;;6.45;2.97;;;;;;;;;;4972760;28;20713;-78
2022/05/19 11:14:36;;;;;;;6.32;2.70;;;;;;;;;;4970505;28;20026;-78
2022/05/19 11:17:16;;;;;;;5.43;2.80;;;;;;;;;;4972556;28;20088;-79
2022/05/19 11:19:53;;;;;;;4.40;3.28;;;;;;;;;;4970807;28;20038;-78
2022/05/19 11:22:22;;;;;;;5.10;3.20;;;;;;;;;;4967909;28;20031;-78
2022/05/19 11:27:45;;;;;;;5.47;3.22;;;;;;;;;;4972565;28;20117;-78
2022/05/19 11:30:18;;;;;;;4.80;3.22;;;;;;;;;;4972559;28;20093;-79
2022/05/19 11:32:45;;;;;;;4.65;3.03;;;;;;;;;;4972458;28;20023;-79
2022/05/19 11:35:28;;;;;;;5.85;2.85;;;;;;;;;;4972670;28;20033;-79
2022/05/19 11:38:23;;;;;;;7.00;2.60;;;;;;;;;;4972485;28;20035;-79
2022/05/19 11:40:49;;;;;;;4.78;2.67;;;;;;;;;;4893724;29;20049;-79
2022/05/19 11:43:19;;;;;;;5.82;3.30;;;;;;;;;;4893595;29;20040;-79
2022/05/19 11:45:54;;;;;;;6.68;4.10;;;;;;;;;;4893542;29;20044;-79
2022/05/19 11:57:13;;;;;;;9.27;4.93;;;;;;;;;;4897443;29;20048;-79
2022/05/19 11:59:40;;;;;;;6.60;4.00;;;;;;;;;;4897577;29;20423;-78
2022/05/19 12:02:10;;;;;;;8.93;4.60;;;;;;;;;;4897224;29;20036;-79
2022/05/19 12:04:38;;;;;;;11.40;4.72;;;;;;;;;;4881537;29;20101;-78
2022/05/19 12:07:12;;;;;;;9.40;5.05;;;;;;;;;;4897078;29;20483;-80
2022/05/19 12:09:38;;;;;;;10.30;4.95;;;;;;;;;;4896031;29;20036;-78
2022/05/19 12:12:05;;;;;;;12.73;6.50;;;;;;;;;;4895701;29;20024;-78
2022/05/19 12:14:38;;;;;;;14.00;6.95;;;;;;;;;;4895725;29;20219;-75
2022/05/19 12:17:16;;;;;;;5.70;1.70;;;;;;;;;;4931326;28;20034;-76
2022/05/19 12:19:43;;;;;;;11.32;2.95;;;;;;;;;;4972832;28;20023;-76
2022/05/19 12:22:15;;;;;;;9.38;1.48;;;;;;;;;;4975065;28;20022;-75
2022/05/19 12:24:51;;;;;;;5.35;2.35;;;;;;;;;;4974847;28;20117;-76
2022/05/19 12:27:19;;;;;;;7.95;2.30;;;;;;;;;;4974101;28;20117;-75
2022/05/19 12:29:54;;;;;;;6.65;2.20;;;;;;;;;;4974868;28;20374;-75
2022/05/19 12:32:28;;;;;;;8.35;2.45;;;;;;;;;;4974183;28;20026;-76
2022/05/19 12:35:02;;;;;;;7.55;2.90;;;;;;;;;;4956163;28;20071;-75
2022/05/19 12:37:37;;;;;;;7.00;2.85;;;;;;;;;;4946224;28;20444;-73
2022/05/19 12:40:15;;;;;;;5.32;2.88;;;;;;;;;;4974375;28;20090;-75
2022/05/19 12:42:43;;;;;;;5.65;3.55;;;;;;;;;;4968119;28;20026;-74
2022/05/19 12:45:20;;;;;;;9.25;3.65;;;;;;;;;;4965917;28;20562;-74
2022/05/19 12:47:55;;;;;;;10.25;4.57;;;;;;;;;;4965338;28;20019;-74
2022/05/19 12:50:23;;;;;;;8.27;4.45;;;;;;;;;;4972861;28;20061;-74
2022/05/19 12:52:56;;;;;;;9.88;5.00;;;;;;;;;;4973456;28;20023;-75
2022/05/19 12:55:22;;;;;;;;;;;;;;;;;;4973371;28;20014;-75
2022/05/19 12:57:48;;;;;;;11.48;5.03;;;;;;;;;;4976536;28;19917;-75
2022/05/19 13:00:22;;;;;;;10.68;5.40;;;;;;;;;;4976011;28;20042;-75
2022/05/19 13:03:00;;;;;;;7.28;4.80;;;;;;;;;;4974891;28;20027;-75
2022/05/19 13:05:33;;;;;;;13.32;6.43;;;;;;;;;;4974208;28;20452;-75
2022/05/19 13:08:07;;;;;;;14.63;7.63;;;;;;;;;;4974657;28;20125;-75
2022/05/19 13:10:38;;;;;;;8.00;5.93;;;;;;;;;;4974285;28;20023;-75
2022/05/19 13:13:04;;;;;;;11.30;6.22;;;;;;;;;;4974055;28;20034;-75
2022/05/19 13:15:32;;;;;;;12.98;7.45;;;;;;;;;;4974104;28;20493;-75
2022/05/19 13:18:00;;;;;;;10.27;6.95;;;;;;;;;;4974517;28;20038;-75
2022/05/19 13:20:28;;;;;;;12.02;7.75;;;;;;;;;;4973551;28;20781;-75
2022/05/19 13:23:00;;;;;;;9.73;6.55;;;;;;;;;;4974442;28;20030;-75
2022/05/19 13:25:26;;;;;;;12.20;7.05;;;;;;;;;;4974412;28;20027;-75
2022/05/19 13:30:50;;;;;;;11.98;7.95;;;;;;;;;;4974438;28;20082;-74
2022/05/19 13:33:21;;;;;;;10.55;7.35;;;;;;;;;;4974299;28;20023;-74
2022/05/19 13:35:57;;;;;;;10.85;7.38;;;;;;;;;;4974058;28;20035;-75
2022/05/19 13:38:24;;;;;;;10.45;7.32;;;;;;;;;;4974304;28;20038;-75
2022/05/19 13:40:50;;;;;;;11.48;7.72;;;;;;;;;;4973332;28;20461;-74
2022/05/19 13:43:37;;;;;;;12.85;8.27;;;;;;;;;;4971893;28;20081;-75
2022/05/19 13:46:13;;;;;;;10.35;7.35;;;;;;;;;;4971921;28;20670;-75
2022/05/19 13:48:53;;;;;;;11.38;7.00;;;;;;;;;;4971218;28;20359;-74
2022/05/19 13:51:19;;;;;;;10.00;6.35;;;;;;;;;;4971458;28;20361;-75
2022/05/19 13:53:48;;;;;;;12.02;7.20;;;;;;;;;;4972020;28;20034;-75
2022/05/19 13:56:14;;;;;;;15.20;6.40;;;;;;;;;;4973379;28;20101;-75
2022/05/19 13:58:45;;;;;;;11.63;6.30;;;;;;;;;;4974841;28;20023;-73
2022/05/19 14:01:18;;;;;;;9.82;4.97;;;;;;;;;;4974370;28;20038;-76
2022/05/19 14:03:44;;;;;;;9.02;5.75;;;;;;;;;;4973457;28;20552;-77
2022/05/19 14:06:11;;;;;;;10.05;6.72;;;;;;;;;;4953577;28;20437;-77
2022/05/19 14:08:37;;;;;;;9.05;4.68;;;;;;;;;;4970764;28;20152;-77
2022/05/19 14:11:03;;;;;;;7.45;4.40;;;;;;;;;;4972879;28;20173;-77
2022/05/19 14:13:30;;;;;;;8.02;4.90;;;;;;;;;;4972633;28;20031;-77
2022/05/19 14:16:01;;;;;;;6.40;4.68;;;;;;;;;;4971745;28;20054;-77
2022/05/19 14:18:30;;;;;;;6.18;4.38;;;;;;;;;;4972579;28;20489;-77
2022/05/19 14:21:11;;;;;;;9.02;4.20;;;;;;;;;;4972254;28;20034;-77
2022/05/19 14:23:49;;;;;;;5.63;4.25;;;;;;;;;;4972083;28;20367;-77
2022/05/19 14:26:29;;;;;;;8.75;4.70;;;;;;;;;;4971739;28;20470;-77
2022/05/19 14:28:56;;;;;;;46.47;6.63;;;;;;;;;;4971893;28;20061;-77
2022/05/19 14:31:35;;;;;;;3.50;2.60;;;;;;;;;;4954953;28;20019;-77
2022/05/19 14:34:10;;;;;;;4.25;2.63;;;;;;;;;;4953465;28;20471;-78
2022/05/19 14:36:44;;;;;;;4.25;2.30;;;;;;;;;;4971765;28;20038;-78
2022/05/19 14:39:19;;;;;;;5.18;2.05;;;;;;;;;;4967254;28;20337;-76
2022/05/19 14:44:38;;;;;;;4.57;2.70;;;;;;;;;;4972816;28;20073;-75
2022/05/19 14:47:15;;;;;;;3.63;1.85;;;;;;;;;;4955894;28;20031;-75
2022/05/19 14:49:45;;;;;;;3.67;1.80;;;;;;;;;;4972786;28;20353;-76
2022/05/19 14:52:11;;;;;;;2.83;1.70;;;;;;;;;;4972895;28;20397;-78
2022/05/19 14:54:39;;;;;;;3.55;1.85;;;;;;;;;;4957118;28;20027;-78
2022/05/19 14:57:07;;;;;;;3.50;1.83;;;;;;;;;;4953545;29;20119;-78
2022/05/19 14:59:35;;;;;;;2.25;1.70;;;;;;;;;;4953576;29;20027;-78
2022/05/19 15:02:01;;;;;;;2.70;1.73;;;;;;;;;;4960923;28;20038;-78
2022/05/19 15:04:30;;;;;;;3.53;2.25;;;;;;;;;;4972839;28;20070;-79
2022/05/19 15:06:56;;;;;;;3.05;1.90;;;;;;;;;;4972843;28;20728;-78
2022/05/19 15:09:23;;;;;;;4.30;1.95;;;;;;;;;;4972873;28;20030;-76
2022/05/19 15:11:49;;;;;;;3.92;1.90;;;;;;;;;;4972603;28;20476;-78
2022/05/19 15:14:15;;;;;;;3.72;2.05;;;;;;;;;;4972693;28;20023;-78